createdAt,value
2017-10-04T00:05:12.611Z,3.50
2017-10-04T00:10:40.743Z,2.43
2017-10-04T00:16:09.655Z,2.90
2017-10-04T00:21:37.787Z,2.50
2017-10-04T00:27:05.921Z,3.00
2017-10-04T00:32:34.063Z,2.53
2017-10-04T00:38:02.278Z,2.43
2017-10-04T00:43:30.402Z,2.80
2017-10-04T00:48:59.366Z,2.90
2017-10-04T00:54:27.491Z,2.80
2017-10-04T00:59:55.609Z,2.60
2017-10-04T01:05:23.748Z,2.50
2017-10-04T01:10:52.639Z,2.50
2017-10-04T01:16:21.026Z,3.20
2017-10-04T01:21:49.156Z,2.90
2017-10-04T01:27:18.064Z,3.30
2017-10-04T01:32:46.203Z,3.03
2017-10-04T01:38:15.035Z,3.37
2017-10-04T01:43:43.154Z,4.00
2017-10-04T01:49:11.282Z,3.60
2017-10-04T01:54:39.416Z,3.03
2017-10-04T02:00:07.538Z,3.07
2017-10-04T02:05:35.676Z,3.33
2017-10-04T02:11:03.822Z,3.10
2017-10-04T02:16:31.973Z,2.90
2017-10-04T02:22:00.106Z,3.13
2017-10-04T02:27:29.016Z,2.80
2017-10-04T02:32:57.144Z,2.90
2017-10-04T02:38:26.053Z,3.83
2017-10-04T02:43:54.191Z,3.13
2017-10-04T02:49:22.344Z,3.67
2017-10-04T02:54:50.475Z,3.47
2017-10-04T03:00:18.591Z,3.13
2017-10-04T03:05:46.730Z,3.20
2017-10-04T03:11:15.736Z,2.87
2017-10-04T03:16:43.880Z,3.50
2017-10-04T03:22:12.003Z,3.30
2017-10-04T03:27:42.859Z,3.70
2017-10-04T03:33:10.983Z,3.73
2017-10-04T03:38:39.875Z,3.60
2017-10-04T03:44:08.118Z,3.93
2017-10-04T03:49:37.029Z,3.63
2017-10-04T03:55:05.167Z,3.73
2017-10-04T04:00:33.314Z,3.80
2017-10-04T04:06:02.213Z,3.43
2017-10-04T04:11:30.334Z,3.10
2017-10-04T04:16:58.462Z,4.00
2017-10-04T04:22:26.607Z,3.43
2017-10-04T04:27:54.749Z,3.93
2017-10-04T04:33:22.892Z,3.30
2017-10-04T04:39:00.839Z,4.00
2017-10-04T04:44:28.973Z,3.37
2017-10-04T04:49:57.102Z,3.70
2017-10-04T04:55:25.245Z,4.20
2017-10-04T05:00:53.384Z,4.17
2017-10-04T05:06:22.292Z,3.70
2017-10-04T05:11:50.436Z,3.30
2017-10-04T05:17:18.573Z,3.90
2017-10-04T05:22:46.900Z,3.40
2017-10-04T05:28:15.045Z,4.40
2017-10-04T05:33:43.183Z,3.63
2017-10-04T05:39:11.321Z,4.00
2017-10-04T05:44:39.459Z,4.10
2017-10-04T05:50:08.363Z,3.93
2017-10-04T05:55:37.262Z,3.50
2017-10-04T06:01:05.400Z,3.23
2017-10-04T06:06:33.547Z,3.80
2017-10-04T06:12:01.676Z,3.70
2017-10-04T06:17:29.806Z,3.50
2017-10-04T06:22:58.015Z,3.30
2017-10-04T06:28:27.151Z,3.20
2017-10-04T06:33:55.523Z,3.37
2017-10-04T06:39:23.775Z,3.23
2017-10-04T06:44:51.933Z,3.40
2017-10-04T06:50:20.063Z,3.20
2017-10-04T06:55:48.212Z,3.80
2017-10-04T07:01:16.362Z,3.60
2017-10-04T07:06:45.231Z,3.20
2017-10-04T07:12:13.376Z,3.30
2017-10-04T07:17:42.292Z,3.33
2017-10-04T07:23:10.492Z,3.23
2017-10-04T07:28:38.649Z,2.73
2017-10-04T07:34:06.796Z,3.30
2017-10-04T07:39:34.935Z,3.37
2017-10-04T07:45:03.083Z,2.93
2017-10-04T07:50:31.222Z,3.10
2017-10-04T07:55:59.381Z,2.43
2017-10-04T08:01:27.543Z,2.53
2017-10-04T08:06:55.727Z,2.43
2017-10-04T08:12:23.901Z,2.67
2017-10-04T08:17:52.849Z,2.90
2017-10-04T08:23:21.019Z,2.33
2017-10-04T08:28:49.176Z,2.10
2017-10-04T08:34:17.337Z,1.60
2017-10-04T08:39:45.478Z,2.70
2017-10-04T08:45:13.622Z,2.43
2017-10-04T08:50:41.773Z,2.13
2017-10-04T08:56:10.160Z,2.27
2017-10-04T09:01:38.317Z,2.23
2017-10-04T09:07:06.452Z,1.93
2017-10-04T09:12:34.683Z,1.90
2017-10-04T09:18:02.901Z,2.57
2017-10-04T09:23:31.054Z,2.30
2017-10-04T09:28:59.313Z,2.30
2017-10-04T09:34:28.087Z,1.90
2017-10-04T09:39:56.265Z,1.80
2017-10-04T09:45:24.502Z,1.90
2017-10-04T09:50:52.802Z,1.60
2017-10-04T09:56:20.943Z,1.90
2017-10-04T10:01:49.132Z,2.13
2017-10-04T10:07:18.040Z,1.80
2017-10-04T10:12:46.197Z,1.87
2017-10-04T10:18:14.342Z,1.87
2017-10-04T10:23:42.504Z,2.17
2017-10-04T10:29:10.648Z,1.23
2017-10-04T10:34:39.561Z,1.40
2017-10-04T10:40:07.698Z,1.60
2017-10-04T10:45:35.833Z,2.17
2017-10-04T10:51:04.757Z,1.50
2017-10-04T10:56:32.899Z,1.50
2017-10-04T11:02:01.040Z,1.47
2017-10-04T11:07:29.184Z,1.90
2017-10-04T11:12:57.332Z,2.23
2017-10-04T11:18:26.267Z,1.50
2017-10-04T11:23:54.433Z,1.80
2017-10-04T11:29:22.564Z,1.63
2017-10-04T11:34:53.541Z,2.20
2017-10-04T11:40:22.456Z,1.50
2017-10-04T11:45:51.373Z,2.20
2017-10-04T11:51:19.538Z,1.50
2017-10-04T11:56:47.670Z,1.77
2017-10-04T12:02:15.809Z,1.80
2017-10-04T12:07:43.964Z,1.70
2017-10-04T12:13:12.102Z,1.70
2017-10-04T12:18:40.262Z,1.37
2017-10-04T12:24:08.418Z,2.00
2017-10-04T12:29:36.578Z,1.67
2017-10-04T12:35:04.733Z,1.90
2017-10-04T12:40:33.718Z,1.70
2017-10-04T12:46:01.909Z,1.60
2017-10-04T12:51:30.117Z,1.90
2017-10-04T12:56:59.030Z,2.00
2017-10-04T13:02:27.179Z,1.77
2017-10-04T13:07:57.540Z,1.60
2017-10-04T13:13:26.060Z,1.87
2017-10-04T13:18:54.198Z,1.60
2017-10-04T13:24:22.345Z,1.83
2017-10-04T13:29:51.234Z,1.63
2017-10-04T13:35:19.379Z,2.00
2017-10-04T13:40:48.279Z,1.77
2017-10-04T13:46:16.466Z,1.50
2017-10-04T13:51:44.619Z,1.53
2017-10-04T13:57:13.638Z,1.90
2017-10-04T14:02:41.999Z,1.90
2017-10-04T14:08:10.214Z,2.10
2017-10-04T14:13:38.433Z,2.10
2017-10-04T14:19:06.616Z,2.20
2017-10-04T14:24:34.864Z,1.70
2017-10-04T14:30:03.779Z,2.03
2017-10-04T14:35:31.935Z,1.97
2017-10-04T14:41:00.234Z,2.20
2017-10-04T14:46:29.161Z,2.20
2017-10-04T14:51:58.487Z,2.20
2017-10-04T14:57:27.413Z,2.40
2017-10-04T15:02:55.596Z,3.20
2017-10-04T15:08:25.128Z,2.07
2017-10-04T15:13:53.293Z,2.53
2017-10-04T15:19:21.449Z,2.13
2017-10-04T15:24:50.366Z,1.90
2017-10-04T15:30:18.523Z,1.57
2017-10-04T15:35:46.668Z,1.90
2017-10-04T15:41:14.817Z,2.30
2017-10-04T15:46:42.955Z,2.17
2017-10-04T15:52:11.991Z,1.90
2017-10-04T15:57:40.150Z,1.90
2017-10-04T16:03:08.315Z,1.80
2017-10-04T16:08:36.464Z,1.63
2017-10-04T16:14:04.621Z,1.77
2017-10-04T16:19:32.759Z,1.93
2017-10-04T16:25:00.908Z,2.23
2017-10-04T16:30:29.091Z,1.47
2017-10-04T16:35:57.258Z,1.70
2017-10-04T16:41:25.610Z,1.80
2017-10-04T16:46:53.755Z,1.63
2017-10-04T16:52:21.890Z,1.80
2017-10-04T16:57:50.106Z,2.03
2017-10-04T17:03:19.650Z,2.20
2017-10-04T17:08:47.821Z,2.13
2017-10-04T17:14:19.207Z,2.00
2017-10-04T17:19:47.417Z,1.90
2017-10-04T17:25:17.536Z,2.40
2017-10-04T17:30:45.721Z,2.70
2017-10-04T17:36:15.358Z,2.63
2017-10-04T17:41:43.677Z,2.60
2017-10-04T17:47:11.854Z,2.70
2017-10-04T17:52:40.032Z,2.87
2017-10-04T17:58:08.171Z,2.50
2017-10-04T18:03:36.308Z,2.60
2017-10-04T18:09:04.446Z,2.50
2017-10-04T18:14:33.381Z,2.10
2017-10-04T18:20:01.547Z,2.43
2017-10-04T18:25:29.679Z,2.50
2017-10-04T18:30:57.866Z,2.60
2017-10-04T18:36:26.013Z,2.70
2017-10-04T18:41:54.926Z,2.80
2017-10-04T18:47:23.075Z,2.67
2017-10-04T18:52:51.397Z,2.57
2017-10-04T18:58:19.618Z,2.87
2017-10-04T19:03:48.550Z,2.33
2017-10-04T19:09:16.733Z,2.70
2017-10-04T19:14:44.884Z,2.40
2017-10-04T19:20:13.029Z,2.60
2017-10-04T19:25:41.191Z,2.47
2017-10-04T19:31:09.354Z,2.87
2017-10-04T19:36:37.536Z,4.30
2017-10-04T19:42:05.718Z,4.70
2017-10-04T19:47:33.886Z,2.37
2017-10-04T19:53:02.045Z,2.20
2017-10-04T19:58:30.204Z,2.00
2017-10-04T20:03:59.313Z,2.40
2017-10-04T20:09:27.498Z,2.13
2017-10-04T20:14:55.749Z,2.20
2017-10-04T20:20:23.917Z,2.03
2017-10-04T20:25:53.776Z,2.50
2017-10-04T20:31:21.957Z,2.47
2017-10-04T20:36:50.156Z,2.57
2017-10-04T20:42:19.111Z,2.10
2017-10-04T20:47:47.276Z,2.50
2017-10-04T20:53:15.414Z,2.03
2017-10-04T20:58:43.566Z,2.43
2017-10-04T21:04:11.712Z,2.00
2017-10-04T21:09:39.879Z,2.33
2017-10-04T21:15:08.033Z,2.40
2017-10-04T21:20:36.172Z,2.43
2017-10-04T21:26:04.324Z,1.90
2017-10-04T21:31:32.454Z,2.00
2017-10-04T21:37:01.355Z,2.07
2017-10-04T21:42:29.493Z,1.93
2017-10-04T21:47:58.416Z,1.87
2017-10-04T21:53:26.559Z,1.73
2017-10-04T21:58:54.715Z,2.17
2017-10-04T22:04:22.856Z,2.00
2017-10-04T22:09:51.008Z,2.07
2017-10-04T22:15:19.159Z,2.03
2017-10-04T22:20:48.077Z,1.50
2017-10-04T22:26:16.216Z,1.87
2017-10-04T22:31:44.355Z,1.40
2017-10-04T22:37:13.262Z,1.80
2017-10-04T22:42:41.416Z,2.23
2017-10-04T22:48:09.568Z,2.30
2017-10-04T22:53:37.714Z,1.70
2017-10-04T22:59:05.918Z,1.40
2017-10-04T23:04:34.056Z,1.40
2017-10-04T23:10:02.201Z,2.37
2017-10-04T23:15:30.366Z,1.60
2017-10-04T23:20:58.506Z,1.97
2017-10-04T23:26:26.652Z,1.90
2017-10-04T23:31:55.562Z,1.60
2017-10-04T23:37:23.708Z,1.83
2017-10-04T23:42:51.875Z,1.67
2017-10-04T23:48:20.028Z,2.13
2017-10-04T23:53:48.177Z,2.00
2017-10-04T23:59:16.322Z,2.17
